Time;durP1;ratioP1;P1;durP2;ratioP2;P2;SDS_P1;SDS_P2;PMS_P1;PMS_P2;Temp;Humidity;BMP_temperature;BMP_pressure;BME280_temperature;BME280_humidity;BME280_pressure;Samples;Min_cycle;Max_cycle;Signal;HPM_P1;HPM_P2
2021/12/01 00:00:13;;;;;;;0.50;0.50;;;;;;;1.12;100.00;92593.50;2091744;28;20041;-88
2021/12/01 00:01:14;;;;;;;0.40;0.40;;;;;;;0.96;100.00;92593.81;2104389;28;20039;-87
2021/12/01 00:02:18;;;;;;;1.55;0.55;;;;;;;0.87;100.00;92596.75;2089106;28;20108;-87
2021/12/01 00:03:20;;;;;;;0.50;0.50;;;;;;;0.75;100.00;92592.56;2081552;28;20071;-87
2021/12/01 00:04:33;;;;;;;0.52;0.52;;;;;;;0.95;100.00;92587.78;2084581;28;20099;-87
2021/12/01 00:05:34;;;;;;;0.60;0.50;;;;;;;0.85;100.00;92585.84;2091352;28;20071;-87
2021/12/01 00:06:55;;;;;;;0.60;0.60;;;;;;;0.87;100.00;92586.22;2097273;28;20046;-87
2021/12/01 00:08:23;;;;;;;0.52;0.52;;;;;;;0.85;100.00;92590.38;2096438;28;20028;-87
2021/12/01 00:09:24;;;;;;;1.20;0.80;;;;;;;1.02;100.00;92583.69;2095021;28;20024;-88
2021/12/01 00:10:34;;;;;;;0.50;0.50;;;;;;;0.85;100.00;92583.22;2091157;28;20028;-87
2021/12/01 00:11:42;;;;;;;0.68;0.63;;;;;;;1.10;100.00;92574.69;2090259;28;20966;-87
2021/12/01 00:12:44;;;;;;;0.57;0.57;;;;;;;1.13;100.00;92574.72;2087055;28;20036;-87
2021/12/01 00:13:45;;;;;;;1.40;0.80;;;;;;;1.11;100.00;92573.59;2089085;28;20297;-88
2021/12/01 00:14:46;;;;;;;1.30;0.98;;;;;;;0.93;100.00;92568.25;2091819;28;20033;-87
2021/12/01 00:15:49;;;;;;;0.75;0.60;;;;;;;0.89;100.00;92562.22;2098745;28;20692;-88
2021/12/01 00:16:50;;;;;;;0.50;0.50;;;;;;;0.80;100.00;92570.41;2093361;28;20095;-88
2021/12/01 00:17:52;;;;;;;0.73;0.73;;;;;;;1.05;100.00;92573.16;2084480;28;20625;-88
2021/12/01 00:18:53;;;;;;;0.77;0.60;;;;;;;1.09;100.00;92573.19;2083519;28;20033;-88
2021/12/01 00:19:54;;;;;;;0.85;0.70;;;;;;;1.07;100.00;92572.81;2088299;28;20013;-88
2021/12/01 00:20:58;;;;;;;0.70;0.70;;;;;;;1.16;100.00;92570.59;2079250;28;20028;-88
2021/12/01 00:22:00;;;;;;;0.60;0.60;;;;;;;1.17;100.00;92564.22;2080617;28;20028;-88
2021/12/01 00:23:08;;;;;;;0.60;0.60;;;;;;;1.08;100.00;92569.06;2083952;28;20378;-88
2021/12/01 00:24:10;;;;;;;0.50;0.50;;;;;;;0.95;100.00;92561.47;2081649;28;20466;-88
2021/12/01 00:25:17;;;;;;;0.95;0.60;;;;;;;0.90;100.00;92568.97;2081428;28;20025;-88
2021/12/01 00:26:18;;;;;;;0.60;0.60;;;;;;;1.15;100.00;92559.31;2095266;28;20476;-87
2021/12/01 00:27:20;;;;;;;0.63;0.60;;;;;;;1.14;100.00;92557.03;2093362;28;20028;-87
2021/12/01 00:28:21;;;;;;;0.50;0.50;;;;;;;1.13;100.00;92551.03;2080908;28;20025;-88
2021/12/01 00:29:22;;;;;;;0.50;0.50;;;;;;;0.92;100.00;92556.19;2084758;28;20064;-88
2021/12/01 00:30:25;;;;;;;0.73;0.73;;;;;;;1.06;100.00;92556.28;2088628;28;20025;-87
2021/12/01 00:31:28;;;;;;;0.75;0.50;;;;;;;1.06;100.00;92545.75;2089347;28;20036;-87
2021/12/01 00:32:29;;;;;;;0.50;0.50;;;;;;;0.97;100.00;92550.59;2085160;28;20029;-87
2021/12/01 00:33:31;;;;;;;0.50;0.50;;;;;;;0.94;100.00;92541.56;2093024;28;20531;-88
2021/12/01 00:34:33;;;;;;;0.40;0.40;;;;;;;0.78;100.00;92551.59;2090825;28;20033;-87
2021/12/01 00:35:35;;;;;;;0.60;0.60;;;;;;;0.93;100.00;92544.56;2092069;28;20095;-88
2021/12/01 00:36:37;;;;;;;0.50;0.50;;;;;;;0.91;100.00;92547.53;2090906;28;20033;-88
2021/12/01 00:37:43;;;;;;;0.60;0.60;;;;;;;0.84;100.00;92541.50;2089308;28;20060;-88
2021/12/01 00:38:45;;;;;;;0.60;0.60;;;;;;;0.81;100.00;92536.97;2090191;28;20024;-87
2021/12/01 00:39:46;;;;;;;0.40;0.40;;;;;;;1.05;100.00;92532.94;2081210;28;20057;-88
2021/12/01 00:40:48;;;;;;;0.40;0.40;;;;;;;0.92;100.00;92528.03;2091030;28;20032;-87
2021/12/01 00:41:55;;;;;;;0.47;0.47;;;;;;;0.91;100.00;92526.50;2084099;28;20033;-87
2021/12/01 00:43:02;;;;;;;0.60;0.32;;;;;;;0.88;100.00;92524.63;2083843;28;20105;-87
2021/12/01 00:44:09;;;;;;;0.45;0.43;;;;;;;0.99;100.00;92519.41;2090558;28;20033;-88
2021/12/01 00:45:22;;;;;;;0.40;0.40;;;;;;;1.00;100.00;92523.53;2097838;28;20028;-88
2021/12/01 00:46:35;;;;;;;0.40;0.40;;;;;;;1.06;100.00;92524.69;2089519;28;20040;-86
2021/12/01 00:47:44;;;;;;;0.40;0.40;;;;;;;0.88;100.00;92516.72;2084915;28;20064;-87
2021/12/01 00:48:45;;;;;;;0.70;0.60;;;;;;;0.98;100.00;92516.00;2082227;28;20509;-88
2021/12/01 00:49:46;;;;;;;0.30;0.30;;;;;;;1.02;100.00;92510.78;2077432;28;20482;-88
2021/12/01 00:50:49;;;;;;;0.40;0.40;;;;;;;0.95;100.00;92506.22;2078587;28;20021;-88
2021/12/01 00:51:50;;;;;;;0.50;0.40;;;;;;;0.92;100.00;92496.47;2089370;28;20025;-88
2021/12/01 00:52:54;;;;;;;0.30;0.30;;;;;;;0.93;100.00;92500.59;2082108;28;20033;-87
2021/12/01 00:53:55;;;;;;;0.32;0.32;;;;;;;0.95;100.00;92510.72;2081415;28;20417;-88
2021/12/01 00:54:56;;;;;;;0.30;0.30;;;;;;;0.91;100.00;92515.22;2081109;28;20064;-88
2021/12/01 00:55:57;;;;;;;0.30;0.30;;;;;;;0.94;100.00;92501.34;2081147;28;20029;-88
2021/12/01 00:56:58;;;;;;;0.40;0.40;;;;;;;0.88;100.00;92511.47;2083162;28;20432;-88
2021/12/01 00:58:00;;;;;;;0.30;0.30;;;;;;;0.91;100.00;92507.31;2081633;28;20029;-87
2021/12/01 00:59:01;;;;;;;0.22;0.22;;;;;;;0.96;100.00;92502.47;2092038;28;20029;-88
2021/12/01 01:00:07;;;;;;;0.20;0.20;;;;;;;1.30;100.00;92490.94;2089356;28;20477;-88
2021/12/01 01:01:08;;;;;;;0.20;0.20;;;;;;;1.26;100.00;92496.19;2091266;28;20069;-87
2021/12/01 01:02:09;;;;;;;0.20;0.20;;;;;;;1.13;100.00;92500.28;2091528;28;20056;-87
2021/12/01 01:03:10;;;;;;;0.30;0.30;;;;;;;1.08;100.00;92503.28;2089298;28;20175;-86
2021/12/01 01:04:29;;;;;;;1.88;0.30;;;;;;;1.07;100.00;92499.13;2085580;28;20094;-86
2021/12/01 01:05:31;;;;;;;0.20;0.20;;;;;;;1.15;100.00;92490.91;2096128;28;20086;-87
2021/12/01 01:06:33;;;;;;;0.30;0.30;;;;;;;1.13;100.00;92489.75;2088483;28;20040;-86
2021/12/01 01:07:51;;;;;;;0.30;0.30;;;;;;;0.92;100.00;92491.19;2098805;28;20031;-87
2021/12/01 01:09:01;;;;;;;0.28;0.28;;;;;;;0.95;100.00;92495.69;2088392;28;20106;-87
2021/12/01 01:17:09;;;;;;;0.30;0.30;;;;;;;0.97;100.00;92477.69;2099444;28;20032;-87
2021/12/01 01:18:10;;;;;;;0.20;0.20;;;;;;;0.94;100.00;92473.16;2089111;28;20067;-86
2021/12/01 01:19:14;;;;;;;0.65;0.30;;;;;;;0.98;100.00;92468.66;2091661;28;20028;-86
2021/12/01 01:20:18;;;;;;;0.30;0.30;;;;;;;0.95;100.00;92460.75;2077138;28;20085;-86
2021/12/01 01:21:22;;;;;;;0.40;0.40;;;;;;;0.90;100.00;92461.09;2089156;28;20037;-86
2021/12/01 01:22:23;;;;;;;0.38;0.38;;;;;;;0.95;100.00;92460.75;2087319;28;20245;-86
2021/12/01 01:23:26;;;;;;;0.73;0.38;;;;;;;0.95;100.00;92469.38;2088765;28;20025;-86
2021/12/01 01:24:27;;;;;;;0.30;0.30;;;;;;;1.05;100.00;92467.16;2087891;28;20072;-86
2021/12/01 01:25:29;;;;;;;0.35;0.30;;;;;;;1.06;100.00;92461.53;2088373;28;20036;-86
2021/12/01 01:26:38;;;;;;;0.30;0.30;;;;;;;1.21;100.00;92463.06;2086112;28;20029;-86
2021/12/01 01:27:39;;;;;;;0.50;0.50;;;;;;;1.33;100.00;92469.88;2078680;28;20076;-86
2021/12/01 01:28:42;;;;;;;0.50;0.50;;;;;;;1.38;100.00;92481.94;2077714;28;20878;-86
2021/12/01 01:29:43;;;;;;;0.55;0.55;;;;;;;1.12;100.00;92464.56;2083820;28;20037;-86
2021/12/01 01:30:44;;;;;;;0.60;0.47;;;;;;;1.12;100.00;92465.31;2094776;28;20032;-86
2021/12/01 01:31:45;;;;;;;1.88;0.60;;;;;;;1.32;100.00;92468.38;2086545;28;20025;-86
2021/12/01 01:32:46;;;;;;;0.47;0.47;;;;;;;1.51;100.00;92473.31;2093327;28;20425;-86
2021/12/01 01:33:49;;;;;;;0.60;0.60;;;;;;;1.41;100.00;92470.66;2092402;28;20126;-86
2021/12/01 01:34:50;;;;;;;1.67;0.80;;;;;;;1.26;100.00;92472.50;2087157;28;20223;-86
2021/12/01 01:35:52;;;;;;;0.85;0.52;;;;;;;1.59;100.00;92473.31;2079374;28;20103;-86
2021/12/01 01:36:53;;;;;;;0.50;0.50;;;;;;;1.44;100.00;92462.00;2097953;28;20542;-86
2021/12/01 01:37:55;;;;;;;0.80;0.70;;;;;;;1.33;100.00;92461.97;2089624;28;20206;-86
2021/12/01 01:38:57;;;;;;;0.50;0.50;;;;;;;1.37;100.00;92467.25;2077862;28;20072;-86
2021/12/01 01:39:58;;;;;;;1.33;0.65;;;;;;;1.24;100.00;92456.31;2080175;28;20931;-86
2021/12/01 01:41:02;;;;;;;0.60;0.60;;;;;;;1.16;100.00;92458.19;2089471;28;20091;-86
2021/12/01 01:42:03;;;;;;;0.63;0.60;;;;;;;1.36;100.00;92449.94;2097180;28;20044;-85
2021/12/01 01:43:06;;;;;;;0.68;0.60;;;;;;;1.26;100.00;92441.66;2097024;28;20066;-85
2021/12/01 01:44:07;;;;;;;0.75;0.75;;;;;;;1.32;100.00;92449.97;2088580;28;20029;-86
2021/12/01 01:45:12;;;;;;;1.10;0.68;;;;;;;1.51;100.00;92452.22;2084142;28;20046;-86
2021/12/01 01:46:14;;;;;;;0.60;0.60;;;;;;;1.37;100.00;92433.78;2083445;28;20517;-86
2021/12/01 01:47:17;;;;;;;0.88;0.80;;;;;;;1.38;100.00;92435.28;2087635;28;20784;-86
2021/12/01 01:48:18;;;;;;;0.70;0.70;;;;;;;1.53;100.00;92430.78;2085326;28;20680;-86
2021/12/01 01:49:23;;;;;;;0.80;0.80;;;;;;;1.23;100.00;92423.25;2087883;28;20048;-85
2021/12/01 01:50:36;;;;;;;1.33;0.70;;;;;;;1.39;100.00;92421.00;2089575;28;20408;-85
2021/12/01 01:51:40;;;;;;;1.50;0.90;;;;;;;1.34;100.00;92420.63;2081126;28;20025;-85
2021/12/01 01:52:41;;;;;;;0.90;0.90;;;;;;;1.09;100.00;92415.28;2076275;28;20118;-86
2021/12/01 01:53:42;;;;;;;0.70;0.70;;;;;;;1.19;100.00;92425.09;2086494;28;20025;-86
2021/12/01 01:54:43;;;;;;;0.85;0.85;;;;;;;1.12;100.00;92430.34;2096330;28;20077;-86
2021/12/01 01:55:47;;;;;;;1.13;0.90;;;;;;;1.18;100.00;92420.94;2087645;28;20032;-86
2021/12/01 01:56:48;;;;;;;1.42;1.20;;;;;;;1.16;100.00;92425.84;2085634;28;20029;-86
2021/12/01 01:57:49;;;;;;;1.10;1.00;;;;;;;1.28;100.00;92437.91;2096372;28;20704;-86
2021/12/01 01:58:53;;;;;;;1.83;0.95;;;;;;;1.21;100.00;92430.75;2086924;28;20028;-85
2021/12/01 01:59:54;;;;;;;1.10;1.00;;;;;;;1.23;100.00;92418.72;2088410;28;20029;-85
2021/12/01 02:02:07;;;;;;;0.80;0.80;;;;;;;1.08;100.00;92422.44;2087895;28;20518;-86
2021/12/01 02:03:11;;;;;;;1.23;0.80;;;;;;;1.12;100.00;92415.31;2084653;28;20036;-86
2021/12/01 02:04:33;;;;;;;0.77;0.77;;;;;;;1.38;100.00;92410.84;2097195;28;20055;-86
2021/12/01 02:05:38;;;;;;;0.60;0.60;;;;;;;1.52;100.00;92405.56;2103161;28;20056;-86
2021/12/01 02:07:00;;;;;;;0.70;0.70;;;;;;;1.42;100.00;92401.81;2096148;28;20031;-86
2021/12/01 02:08:33;;;;;;;1.02;0.73;;;;;;;1.40;100.00;92404.06;2094102;28;20070;-85
2021/12/01 02:09:41;;;;;;;0.70;0.70;;;;;;;1.39;100.00;92399.19;2083792;28;20100;-85
2021/12/01 02:10:54;;;;;;;1.48;0.90;;;;;;;1.35;100.00;92404.44;2091089;28;20036;-86
2021/12/01 02:12:03;;;;;;;0.68;0.68;;;;;;;1.42;100.00;92393.16;2092554;28;20052;-86
2021/12/01 02:13:04;;;;;;;0.65;0.65;;;;;;;1.49;100.00;92391.28;2079520;28;20062;-85
2021/12/01 02:14:06;;;;;;;0.73;0.73;;;;;;;1.31;100.00;92398.41;2081863;28;20028;-85
2021/12/01 02:15:08;;;;;;;1.48;0.80;;;;;;;1.39;100.00;92383.38;2088611;28;20021;-85
2021/12/01 02:16:10;;;;;;;0.90;0.70;;;;;;;1.42;100.00;92374.75;2085603;28;20033;-85
2021/12/01 02:17:11;;;;;;;0.50;0.50;;;;;;;1.36;100.00;92392.78;2101795;28;20457;-86
2021/12/01 02:18:12;;;;;;;0.60;0.60;;;;;;;1.42;100.00;92391.28;2095305;28;20072;-86
2021/12/01 02:19:14;;;;;;;1.17;0.55;;;;;;;1.63;100.00;92371.34;2077610;28;20057;-86
2021/12/01 02:20:20;;;;;;;0.70;0.70;;;;;;;1.59;100.00;92374.00;2078768;28;20021;-85
2021/12/01 02:21:30;;;;;;;0.80;0.60;;;;;;;1.61;100.00;92374.34;2088424;28;20106;-85
2021/12/01 02:22:34;;;;;;;2.40;0.77;;;;;;;1.78;100.00;92375.47;2090317;28;20048;-85
2021/12/01 02:23:37;;;;;;;0.50;0.50;;;;;;;1.62;100.00;92369.84;2080402;28;21326;-86
2021/12/01 02:24:46;;;;;;;0.60;0.60;;;;;;;1.48;100.00;92358.16;2087641;28;20036;-85
2021/12/01 02:25:47;;;;;;;0.88;0.70;;;;;;;1.55;100.00;92356.69;2086421;28;20075;-86
2021/12/01 02:26:51;;;;;;;0.50;0.50;;;;;;;1.39;100.00;92346.53;2085949;28;20021;-85
2021/12/01 02:27:56;;;;;;;0.43;0.43;;;;;;;1.57;100.00;92357.03;2080442;28;20191;-85
2021/12/01 02:29:05;;;;;;;0.63;0.63;;;;;;;1.51;100.00;92367.97;2085799;28;20127;-85
2021/12/01 02:30:07;;;;;;;3.15;0.50;;;;;;;1.68;100.00;92349.91;2091398;28;20036;-85
2021/12/01 02:31:09;;;;;;;0.50;0.50;;;;;;;1.62;100.00;92354.78;2091258;28;20032;-85
2021/12/01 02:32:10;;;;;;;0.50;0.50;;;;;;;1.75;100.00;92357.78;2079937;28;20048;-85
2021/12/01 02:33:11;;;;;;;0.50;0.50;;;;;;;1.67;100.00;92346.53;2077824;28;20112;-86
2021/12/01 02:34:16;;;;;;;0.45;0.45;;;;;;;1.59;100.00;92339.75;2087092;28;20025;-86
2021/12/01 02:35:18;;;;;;;0.40;0.40;;;;;;;1.44;100.00;92346.88;2092961;28;20024;-85
2021/12/01 02:36:23;;;;;;;0.93;0.80;;;;;;;1.63;100.00;92345.03;2088893;28;20598;-86
2021/12/01 02:37:24;;;;;;;1.00;0.45;;;;;;;1.48;100.00;92336.34;2087841;28;20028;-86
2021/12/01 02:38:25;;;;;;;0.43;0.43;;;;;;;1.64;100.00;92330.72;2078108;28;20107;-86
2021/12/01 02:39:28;;;;;;;0.60;0.60;;;;;;;1.43;100.00;92321.69;2087902;28;20029;-86
2021/12/01 02:40:32;;;;;;;0.63;0.63;;;;;;;1.35;100.00;92325.44;2087862;28;20025;-86
2021/12/01 02:41:33;;;;;;;0.50;0.50;;;;;;;1.59;100.00;92312.66;2087877;28;20037;-86
2021/12/01 02:42:34;;;;;;;0.55;0.50;;;;;;;1.73;100.00;92315.28;2086156;28;20025;-86
2021/12/01 02:43:35;;;;;;;0.43;0.43;;;;;;;1.82;100.00;92313.00;2094409;28;20036;-87
2021/12/01 02:44:37;;;;;;;1.85;0.40;;;;;;;1.80;100.00;92303.94;2087280;28;20028;-85
2021/12/01 02:45:41;;;;;;;0.47;0.40;;;;;;;1.71;100.00;92297.22;2091832;28;20037;-87
2021/12/01 02:46:43;;;;;;;0.50;0.50;;;;;;;1.57;100.00;92309.63;2089669;28;20056;-86
2021/12/01 02:47:50;;;;;;;0.93;0.60;;;;;;;1.56;100.00;92303.63;2081319;28;20064;-87
2021/12/01 02:48:59;;;;;;;0.57;0.57;;;;;;;1.83;100.00;92305.84;2086648;28;20095;-86
2021/12/01 02:50:08;;;;;;;0.60;0.60;;;;;;;1.68;100.00;92294.59;2085420;28;20470;-85
2021/12/01 02:51:17;;;;;;;0.50;0.50;;;;;;;1.61;100.00;92302.50;2080379;28;20032;-86
2021/12/01 02:52:24;;;;;;;2.25;0.80;;;;;;;1.55;100.00;92298.75;2088994;28;20056;-85
2021/12/01 02:53:31;;;;;;;0.63;0.63;;;;;;;1.47;100.00;92300.63;2087692;28;20088;-85
2021/12/01 02:54:39;;;;;;;0.70;0.60;;;;;;;1.63;100.00;92284.44;2092636;28;20411;-87
2021/12/01 02:56:05;;;;;;;0.40;0.40;;;;;;;1.67;100.00;92299.09;2088452;28;20025;-85
2021/12/01 02:57:07;;;;;;;0.52;0.52;;;;;;;1.51;100.00;92296.88;2085890;28;20078;-86
2021/12/01 02:58:08;;;;;;;1.02;0.50;;;;;;;1.48;100.00;92300.25;2078860;28;20105;-86
2021/12/01 02:59:11;;;;;;;0.40;0.40;;;;;;;1.57;100.00;92305.13;2079181;28;20037;-86
2021/12/01 03:00:17;;;;;;;0.95;0.50;;;;;;;1.70;100.00;92295.69;2087750;28;20013;-86
2021/12/01 03:01:22;;;;;;;0.47;0.40;;;;;;;1.55;100.00;92307.41;2088036;28;20060;-86
2021/12/01 03:02:26;;;;;;;1.05;0.50;;;;;;;1.50;100.00;92290.09;2079658;28;20036;-86
2021/12/01 03:03:30;;;;;;;0.50;0.40;;;;;;;1.72;100.00;92287.44;2078093;28;20141;-85
2021/12/01 03:04:38;;;;;;;0.57;0.57;;;;;;;1.75;100.00;92278.75;2097766;28;20127;-84
2021/12/01 03:05:57;;;;;;;0.50;0.50;;;;;;;1.54;100.00;92279.56;2087702;28;20028;-86
2021/12/01 03:06:59;;;;;;;0.43;0.43;;;;;;;1.86;100.00;92284.00;2092103;28;20104;-86
2021/12/01 03:08:20;;;;;;;0.88;0.50;;;;;;;1.90;100.00;92269.69;2095852;28;20494;-86
2021/12/01 03:09:22;;;;;;;0.50;0.50;;;;;;;1.79;100.00;92274.22;2092582;28;20021;-86
2021/12/01 03:10:26;;;;;;;0.95;0.65;;;;;;;1.72;100.00;92274.25;2075388;28;20065;-86
2021/12/01 03:11:30;;;;;;;0.45;0.45;;;;;;;1.79;100.00;92271.59;2077525;28;20025;-85
2021/12/01 03:12:37;;;;;;;0.68;0.60;;;;;;;1.69;100.00;92267.09;2076827;28;22257;-87
2021/12/01 03:13:44;;;;;;;1.27;0.65;;;;;;;1.51;100.00;92269.78;2086159;28;20131;-85
2021/12/01 03:14:55;;;;;;;1.42;0.50;;;;;;;1.42;100.00;92264.91;2077906;28;20120;-85
2021/12/01 03:16:10;;;;;;;0.63;0.50;;;;;;;1.41;100.00;92262.66;2089717;28;20048;-86
2021/12/01 03:17:17;;;;;;;1.40;0.50;;;;;;;1.56;100.00;92260.75;2090956;28;20124;-85
2021/12/01 03:18:26;;;;;;;0.40;0.40;;;;;;;1.80;100.00;92256.53;2090238;28;20032;-85
2021/12/01 03:19:33;;;;;;;0.55;0.40;;;;;;;1.69;100.00;92259.94;2097734;28;20072;-86
2021/12/01 03:20:39;;;;;;;0.63;0.43;;;;;;;1.91;100.00;92260.66;2096886;28;20037;-85
2021/12/01 03:21:46;;;;;;;0.60;0.60;;;;;;;2.02;100.00;92252.72;2098740;28;20151;-85
2021/12/01 03:22:49;;;;;;;0.40;0.40;;;;;;;1.81;100.00;92256.16;2085558;28;20506;-87
2021/12/01 03:23:55;;;;;;;0.50;0.50;;;;;;;1.65;100.00;92251.31;2088811;28;20119;-86
2021/12/01 03:25:00;;;;;;;2.22;1.10;;;;;;;1.59;100.00;92244.94;2094740;28;20059;-87
2021/12/01 03:26:06;;;;;;;1.45;0.60;;;;;;;1.55;100.00;92246.81;2087511;28;20475;-87
2021/12/01 03:27:11;;;;;;;0.40;0.40;;;;;;;1.47;100.00;92250.59;2089996;28;20032;-86
2021/12/01 03:28:12;;;;;;;0.45;0.40;;;;;;;1.56;100.00;92250.97;2092463;28;20110;-86
2021/12/01 03:29:15;;;;;;;1.17;0.50;;;;;;;1.43;100.00;92247.97;2095306;28;20028;-86
2021/12/01 03:30:18;;;;;;;1.70;0.45;;;;;;;1.42;100.00;92248.34;2090427;28;20413;-87
2021/12/01 03:31:19;;;;;;;0.57;0.50;;;;;;;1.47;100.00;92238.19;2097284;28;20028;-86
2021/12/01 03:32:22;;;;;;;0.50;0.50;;;;;;;1.72;100.00;92232.13;2097416;28;20031;-85
2021/12/01 03:33:24;;;;;;;0.98;0.40;;;;;;;1.94;100.00;92243.34;2093026;28;20619;-86
2021/12/01 03:34:30;;;;;;;0.47;0.40;;;;;;;1.99;100.00;92237.66;2080536;28;20026;-86
2021/12/01 03:35:34;;;;;;;0.40;0.40;;;;;;;2.10;100.00;92250.78;2086718;28;20029;-87
2021/12/01 03:36:35;;;;;;;0.57;0.35;;;;;;;2.07;100.00;92241.78;2089291;28;20053;-86
2021/12/01 03:37:38;;;;;;;0.43;0.40;;;;;;;2.05;100.00;92243.28;2091892;28;20029;-86
2021/12/01 03:38:41;;;;;;;0.70;0.50;;;;;;;1.92;100.00;92243.69;2092637;28;20833;-85
2021/12/01 03:39:42;;;;;;;0.38;0.38;;;;;;;1.85;100.00;92246.38;2081650;28;20611;-86
2021/12/01 03:40:51;;;;;;;1.75;0.47;;;;;;;1.92;100.00;92253.50;2089340;28;20566;-87
2021/12/01 03:41:52;;;;;;;0.40;0.40;;;;;;;1.98;100.00;92239.53;2087325;28;20032;-87
2021/12/01 03:43:00;;;;;;;0.52;0.30;;;;;;;1.86;100.00;92245.22;2081160;28;20031;-86
2021/12/01 03:44:02;;;;;;;0.88;0.45;;;;;;;2.22;100.00;92255.63;2088785;28;20505;-86
2021/12/01 03:45:05;;;;;;;0.73;0.40;;;;;;;1.90;100.00;92247.84;2094891;28;20597;-86
2021/12/01 03:46:06;;;;;;;1.02;0.32;;;;;;;2.01;100.00;92265.13;2080165;28;20526;-86
2021/12/01 03:47:08;;;;;;;0.40;0.40;;;;;;;1.93;100.00;92245.22;2086115;28;20024;-86
2021/12/01 03:48:09;;;;;;;0.20;0.20;;;;;;;1.89;100.00;92254.25;2089054;28;20762;-86
2021/12/01 03:49:13;;;;;;;0.55;0.43;;;;;;;1.86;100.00;92237.31;2089682;28;20025;-87
2021/12/01 03:50:18;;;;;;;0.40;0.40;;;;;;;2.03;100.00;92253.47;2090101;28;20020;-87
2021/12/01 03:51:28;;;;;;;0.35;0.30;;;;;;;2.01;100.00;92238.75;2094514;28;20032;-86
2021/12/01 03:52:35;;;;;;;0.65;0.40;;;;;;;1.87;100.00;92241.47;2095179;28;20056;-87
2021/12/01 03:53:43;;;;;;;0.40;0.40;;;;;;;1.93;100.00;92232.03;2084912;28;20661;-87
2021/12/01 03:54:48;;;;;;;0.73;0.30;;;;;;;1.93;100.00;92237.31;2078216;28;20018;-86
2021/12/01 03:55:53;;;;;;;0.30;0.30;;;;;;;1.97;100.00;92224.09;2078890;28;20508;-87
2021/12/01 03:56:59;;;;;;;0.40;0.40;;;;;;;1.88;100.00;92227.16;2099308;28;20024;-86
2021/12/01 03:58:02;;;;;;;0.38;0.35;;;;;;;1.93;100.00;92239.16;2100263;28;20119;-86
2021/12/01 03:59:06;;;;;;;0.47;0.38;;;;;;;1.96;100.00;92230.50;2091970;28;20654;-86
2021/12/01 04:00:15;;;;;;;0.30;0.28;;;;;;;1.75;100.00;92232.06;2085512;28;20074;-87
2021/12/01 04:01:20;;;;;;;0.52;0.40;;;;;;;1.70;100.00;92221.19;2091997;28;20048;-87
2021/12/01 04:02:25;;;;;;;0.30;0.30;;;;;;;1.71;100.00;92225.31;2092321;28;20025;-88
2021/12/01 04:03:27;;;;;;;0.47;0.35;;;;;;;1.69;100.00;92228.34;2089218;28;20033;-87
2021/12/01 04:04:38;;;;;;;0.47;0.38;;;;;;;1.80;100.00;92227.56;2085156;28;20488;-87
2021/12/01 04:05:42;;;;;;;0.30;0.30;;;;;;;2.09;100.00;92220.28;2095301;28;20370;-86
2021/12/01 04:07:04;;;;;;;0.20;0.20;;;;;;;2.03;100.00;92219.19;2096632;28;20043;-87
2021/12/01 04:08:32;;;;;;;0.30;0.30;;;;;;;2.15;100.00;92205.56;2100096;28;20480;-86
2021/12/01 04:09:41;;;;;;;0.30;0.30;;;;;;;2.22;100.00;92214.19;2090858;28;20039;-86
2021/12/01 04:10:42;;;;;;;1.00;0.30;;;;;;;2.08;100.00;92216.91;2095176;28;20504;-85
2021/12/01 04:11:46;;;;;;;0.30;0.30;;;;;;;2.11;100.00;92207.47;2088440;28;20040;-86
2021/12/01 04:12:53;;;;;;;0.20;0.20;;;;;;;2.23;100.00;92212.31;2089415;28;20116;-85
2021/12/01 04:13:59;;;;;;;0.20;0.20;;;;;;;2.01;100.00;92209.03;2094973;28;20469;-86
2021/12/01 04:15:04;;;;;;;0.28;0.28;;;;;;;1.98;100.00;92220.34;2089432;28;20094;-86
2021/12/01 04:16:05;;;;;;;0.38;0.32;;;;;;;2.17;100.00;92208.59;2089220;28;20501;-86
2021/12/01 04:17:07;;;;;;;0.30;0.30;;;;;;;1.98;100.00;92197.38;2092076;28;20128;-86
2021/12/01 04:18:11;;;;;;;0.85;0.30;;;;;;;1.91;100.00;92201.94;2079796;28;20083;-86
2021/12/01 04:19:18;;;;;;;0.40;0.30;;;;;;;2.14;100.00;92199.53;2085818;28;20036;-85
2021/12/01 04:20:24;;;;;;;1.48;0.20;;;;;;;1.98;100.00;92201.91;2086713;28;20024;-85
2021/12/01 04:21:32;;;;;;;0.20;0.20;;;;;;;2.06;100.00;92205.25;2086448;28;20091;-87
2021/12/01 04:22:39;;;;;;;0.30;0.30;;;;;;;2.12;100.00;92191.28;2088925;28;20032;-86
2021/12/01 04:23:50;;;;;;;0.30;0.30;;;;;;;2.07;100.00;92191.69;2091626;28;20668;-87
2021/12/01 04:24:58;;;;;;;0.30;0.30;;;;;;;1.87;100.00;92186.13;2090054;28;20026;-86
2021/12/01 04:25:59;;;;;;;0.30;0.30;;;;;;;1.95;100.00;92187.59;2093074;28;20043;-86
2021/12/01 04:27:02;;;;;;;1.77;0.30;;;;;;;1.92;100.00;92183.09;2083912;28;20029;-86
2021/12/01 04:28:06;;;;;;;0.35;0.25;;;;;;;1.94;100.00;92178.19;2081644;28;20037;-87
2021/12/01 04:29:08;;;;;;;0.52;0.30;;;;;;;2.04;100.00;92186.44;2082281;28;20153;-86
2021/12/01 04:30:13;;;;;;;0.35;0.35;;;;;;;1.97;100.00;92180.03;2083873;28;20029;-88
2021/12/01 04:31:14;;;;;;;1.45;0.20;;;;;;;1.76;100.00;92180.16;2088169;28;20079;-88
2021/12/01 04:32:15;;;;;;;0.40;0.30;;;;;;;1.79;100.00;92174.13;2083932;28;20060;-87
2021/12/01 04:33:16;;;;;;;0.40;0.40;;;;;;;1.92;100.00;92180.44;2089158;28;20527;-85
2021/12/01 04:34:19;;;;;;;0.40;0.20;;;;;;;2.07;100.00;92180.41;2085747;28;20029;-86
2021/12/01 04:35:23;;;;;;;0.70;0.70;;;;;;;1.88;100.00;92169.19;2079280;28;20025;-88
2021/12/01 04:36:34;;;;;;;0.22;0.22;;;;;;;2.15;100.00;92185.25;2093440;28;20028;-84
2021/12/01 04:37:35;;;;;;;0.55;0.22;;;;;;;2.08;100.00;92180.00;2091806;28;20474;-86
2021/12/01 04:38:37;;;;;;;0.20;0.20;;;;;;;2.00;100.00;92168.75;2082786;28;20042;-87
2021/12/01 04:39:38;;;;;;;0.52;0.32;;;;;;;2.12;100.00;92178.09;2083474;28;20021;-87
2021/12/01 04:40:44;;;;;;;0.65;0.28;;;;;;;1.95;100.00;92171.78;2084004;28;20532;-86
2021/12/01 04:41:56;;;;;;;1.05;0.40;;;;;;;1.77;100.00;92177.13;2092831;28;20386;-88
2021/12/01 04:42:57;;;;;;;0.43;0.40;;;;;;;1.89;100.00;92173.34;2089037;28;20473;-86
2021/12/01 04:44:11;;;;;;;0.20;0.20;;;;;;;2.16;100.00;92167.56;2092331;28;20021;-86
2021/12/01 04:45:15;;;;;;;0.30;0.30;;;;;;;2.12;100.00;92164.94;2093823;28;20227;-87
2021/12/01 04:46:19;;;;;;;0.30;0.30;;;;;;;1.94;100.00;92159.00;2090603;28;20032;-86
2021/12/01 04:47:37;;;;;;;0.40;0.30;;;;;;;1.80;100.00;92164.31;2108882;28;20028;-88
2021/12/01 04:48:39;;;;;;;0.30;0.30;;;;;;;1.68;100.00;92168.91;2104958;28;20035;-88
2021/12/01 04:49:40;;;;;;;0.40;0.30;;;;;;;1.73;100.00;92159.84;2087005;28;20450;-87
2021/12/01 04:50:42;;;;;;;0.30;0.30;;;;;;;2.05;100.00;92166.84;2076932;28;20088;-87
2021/12/01 04:51:47;;;;;;;0.40;0.40;;;;;;;2.12;100.00;92162.28;2087781;28;20567;-87
2021/12/01 04:52:49;;;;;;;0.20;0.20;;;;;;;2.03;100.00;92155.94;2083610;28;20493;-86
2021/12/01 04:53:50;;;;;;;1.25;0.40;;;;;;;1.95;100.00;92155.97;2084633;28;20108;-87
2021/12/01 04:54:51;;;;;;;0.32;0.32;;;;;;;2.16;100.00;92144.56;2078911;28;20025;-87
2021/12/01 04:55:53;;;;;;;0.22;0.22;;;;;;;2.14;100.00;92154.00;2089825;28;20021;-87
2021/12/01 04:56:58;;;;;;;0.20;0.20;;;;;;;2.12;100.00;92140.47;2091288;28;20402;-86
2021/12/01 04:57:59;;;;;;;1.15;0.30;;;;;;;2.15;100.00;92152.84;2092530;28;20037;-86
2021/12/01 04:59:00;;;;;;;0.28;0.28;;;;;;;2.07;100.00;92141.63;2093396;28;20470;-87
2021/12/01 05:00:03;;;;;;;0.25;0.20;;;;;;;2.18;100.00;92152.84;2092896;28;20047;-86
2021/12/01 05:01:05;;;;;;;0.30;0.30;;;;;;;2.08;100.00;92145.00;2088432;28;20717;-86
2021/12/01 05:02:06;;;;;;;0.55;0.30;;;;;;;2.00;100.00;92137.13;2088001;28;20017;-87
2021/12/01 05:03:07;;;;;;;0.20;0.20;;;;;;;1.86;100.00;92134.56;2079341;28;20078;-87
2021/12/01 05:04:28;;;;;;;0.30;0.30;;;;;;;1.77;100.00;92139.50;2092149;28;20111;-85
2021/12/01 05:05:30;;;;;;;0.75;0.40;;;;;;;1.76;100.00;92143.28;2086011;28;20132;-88
2021/12/01 05:06:32;;;;;;;0.30;0.30;;;;;;;1.86;100.00;92121.41;2075608;28;20033;-87
2021/12/01 05:08:03;;;;;;;0.40;0.40;;;;;;;1.90;100.00;92124.75;2092475;28;20031;-86
2021/12/01 05:09:06;;;;;;;0.95;0.77;;;;;;;2.13;100.00;92121.59;2095368;28;20123;-85
2021/12/01 05:10:11;;;;;;;1.17;0.43;;;;;;;1.97;100.00;92110.78;2086838;28;20606;-85
2021/12/01 05:11:19;;;;;;;0.93;0.60;;;;;;;1.83;100.00;92108.25;2086933;28;20025;-86
2021/12/01 05:12:23;;;;;;;0.68;0.63;;;;;;;2.13;100.00;92128.78;2092432;28;20149;-86
2021/12/01 05:13:28;;;;;;;1.70;0.40;;;;;;;2.14;100.00;92111.81;2080178;28;20029;-87